Grand Rapids, Michigan
Current Conditions -  °F | °C
As of 7:53 AM on Wednesday 22 Oct 2014 (Local Time) from KGRR Reporting Station
Few Clouds Few Clouds  
Wind Chill:   Ceiling: Unl
Heat Index:   Visibility: 10mi
Dew Point: -2°   Wind: 0mph
Humidity: 85%   Direction: NA
Pressure: 30.35"   Gusts: NA
Location:  42.97°N, 85.67°W
Report Text: KGRR 221153Z 00000KT 10SM FEW020 01/M02 A3035 RMK AO2 SLP284 I6000 T00061017 10022 21011 51014
Loading
Personal Weather Stations






























Interactive Weather Map
Tropical Storm Tracking
New forecast layout! Learn more

10-Day Weather Forecast

Advertisements
Track Severe Weather on mobile